createdAt,value
2022-08-26T00:00:11.725Z,19.70
2022-08-26T00:02:40.126Z,19.70
2022-08-26T00:05:13.955Z,19.70
2022-08-26T00:07:44.252Z,19.70
2022-08-26T00:10:15.869Z,19.70
2022-08-26T00:12:48.257Z,19.70
2022-08-26T00:15:21.649Z,19.70
2022-08-26T00:17:57.388Z,19.70
2022-08-26T00:20:29.601Z,19.70
2022-08-26T00:22:59.772Z,19.70
2022-08-26T00:25:28.043Z,19.60
2022-08-26T00:27:56.494Z,19.60
2022-08-26T00:30:29.461Z,19.70
2022-08-26T00:33:00.535Z,19.70
2022-08-26T00:35:34.539Z,19.70
2022-08-26T00:38:04.209Z,19.60
2022-08-26T00:40:40.892Z,19.60
2022-08-26T00:43:09.490Z,19.60
2022-08-26T00:45:49.212Z,19.60
2022-08-26T00:48:19.983Z,19.60
2022-08-26T00:51:05.360Z,19.60
2022-08-26T00:53:36.877Z,19.60
2022-08-26T00:56:09.746Z,19.60
2022-08-26T00:58:43.365Z,19.60
2022-08-26T01:01:11.718Z,19.60
2022-08-26T01:03:42.059Z,19.60
2022-08-26T01:06:12.987Z,19.60
2022-08-26T01:08:41.682Z,19.60
2022-08-26T01:11:09.630Z,19.60
2022-08-26T01:13:38.474Z,19.60
2022-08-26T01:16:08.631Z,19.50
2022-08-26T01:18:36.280Z,19.50
2022-08-26T01:21:46.155Z,19.50
2022-08-26T01:24:14.091Z,19.50
2022-08-26T01:26:46.031Z,19.50
2022-08-26T01:29:18.073Z,19.50
2022-08-26T01:31:58.248Z,19.50
2022-08-26T01:34:32.395Z,19.40
2022-08-26T01:37:15.809Z,19.50
2022-08-26T01:39:48.890Z,19.50
2022-08-26T01:42:21.374Z,19.50
2022-08-26T01:45:06.193Z,19.50
2022-08-26T01:47:38.629Z,19.40
2022-08-26T01:50:12.591Z,19.40
2022-08-26T01:52:49.902Z,19.40
2022-08-26T01:55:32.074Z,19.40
2022-08-26T01:58:09.934Z,19.50
2022-08-26T02:00:38.507Z,19.50
2022-08-26T02:03:21.599Z,19.50
2022-08-26T02:05:58.232Z,19.40
2022-08-26T02:08:38.837Z,19.40
2022-08-26T02:11:07.032Z,19.40
2022-08-26T02:13:39.745Z,19.40
2022-08-26T02:16:08.485Z,19.40
2022-08-26T02:18:40.552Z,19.40
2022-08-26T02:21:09.986Z,19.40
2022-08-26T02:23:38.311Z,19.30
2022-08-26T02:26:19.329Z,19.30
2022-08-26T02:28:58.707Z,19.30
2022-08-26T02:31:26.152Z,19.30
2022-08-26T02:33:53.460Z,19.30
2022-08-26T02:36:22.657Z,19.30
2022-08-26T02:38:50.495Z,19.30
2022-08-26T02:41:19.389Z,19.20
2022-08-26T02:43:46.557Z,19.20
2022-08-26T02:46:23.096Z,19.20
2022-08-26T02:48:55.322Z,19.20
2022-08-26T02:51:22.661Z,19.10
2022-08-26T02:53:53.779Z,19.10
2022-08-26T02:56:23.208Z,19.10
2022-08-26T02:58:55.759Z,19.00
2022-08-26T03:01:26.250Z,19.00
2022-08-26T03:03:55.007Z,18.90
2022-08-26T03:06:26.319Z,18.80
2022-08-26T03:08:56.080Z,18.80
2022-08-26T03:11:32.749Z,18.70
2022-08-26T03:14:04.720Z,18.70
2022-08-26T03:16:40.398Z,18.60
2022-08-26T03:19:09.319Z,18.60
2022-08-26T03:21:40.695Z,18.60
2022-08-26T03:24:14.121Z,18.50
2022-08-26T03:26:52.502Z,18.50
2022-08-26T03:29:43.137Z,18.50
2022-08-26T03:32:14.318Z,18.50
2022-08-26T03:34:48.592Z,18.50
2022-08-26T03:37:16.413Z,18.50
2022-08-26T03:39:44.553Z,18.50
2022-08-26T03:42:13.156Z,18.50
2022-08-26T03:44:48.976Z,18.50
2022-08-26T03:47:25.395Z,18.50
2022-08-26T03:49:58.007Z,18.50
2022-08-26T03:52:26.676Z,18.50
2022-08-26T03:54:54.519Z,18.50
2022-08-26T03:57:25.562Z,18.40
2022-08-26T03:59:59.905Z,18.50
2022-08-26T04:02:28.162Z,18.50
2022-08-26T04:04:56.041Z,18.50
2022-08-26T04:07:26.402Z,18.50
2022-08-26T04:10:00.707Z,18.40
2022-08-26T04:12:30.703Z,18.40
2022-08-26T04:14:58.516Z,18.30
2022-08-26T04:17:31.661Z,18.30
2022-08-26T04:20:03.374Z,18.30
2022-08-26T04:22:31.709Z,18.20
2022-08-26T04:25:02.565Z,18.20
2022-08-26T04:27:33.988Z,18.10
2022-08-26T04:30:05.411Z,18.00
2022-08-26T04:32:37.577Z,18.00
2022-08-26T04:35:06.212Z,17.90
2022-08-26T04:37:37.687Z,17.90
2022-08-26T04:40:12.123Z,17.80
2022-08-26T04:42:43.099Z,17.80
2022-08-26T04:45:14.266Z,17.80
2022-08-26T04:47:45.450Z,17.70
2022-08-26T04:50:16.001Z,17.70
2022-08-26T04:52:48.861Z,17.70
2022-08-26T04:55:16.256Z,17.70
2022-08-26T04:57:47.459Z,17.80
2022-08-26T05:00:15.559Z,17.80
2022-08-26T05:02:51.509Z,17.90
2022-08-26T05:05:26.789Z,17.90
2022-08-26T05:07:54.553Z,18.00
2022-08-26T05:10:25.293Z,18.10
2022-08-26T05:13:00.425Z,18.10
2022-08-26T05:15:27.664Z,18.20
2022-08-26T05:18:07.544Z,18.30
2022-08-26T05:20:51.295Z,18.30
2022-08-26T05:23:24.914Z,18.40
2022-08-26T05:25:59.199Z,18.40
2022-08-26T05:28:30.416Z,18.50
2022-08-26T05:31:00.575Z,18.50
2022-08-26T05:33:27.757Z,18.60
2022-08-26T05:35:58.363Z,18.60
2022-08-26T05:38:30.138Z,18.70
2022-08-26T05:40:59.150Z,18.70
2022-08-26T05:43:26.812Z,18.80
2022-08-26T05:46:08.068Z,18.80
2022-08-26T05:48:39.031Z,18.80
2022-08-26T05:51:13.070Z,18.90
2022-08-26T05:53:54.614Z,18.90
2022-08-26T05:56:27.925Z,19.00
2022-08-26T05:58:59.795Z,19.00
2022-08-26T06:01:28.660Z,19.10
2022-08-26T06:04:01.847Z,19.10
2022-08-26T06:06:43.032Z,19.10
2022-08-26T06:09:17.453Z,19.20
2022-08-26T06:11:45.495Z,19.20
2022-08-26T06:14:19.796Z,19.20
2022-08-26T06:16:47.597Z,19.30
2022-08-26T06:19:15.842Z,19.30
2022-08-26T06:21:51.377Z,19.40
2022-08-26T06:24:44.331Z,19.40
2022-08-26T06:27:15.338Z,19.40
2022-08-26T06:29:42.958Z,19.50
2022-08-26T06:32:10.376Z,19.50
2022-08-26T06:34:38.926Z,19.60
2022-08-26T06:37:07.577Z,19.60
2022-08-26T06:39:35.137Z,19.70
2022-08-26T06:42:03.374Z,19.70
2022-08-26T06:44:33.540Z,19.70
2022-08-26T06:47:04.736Z,19.70
2022-08-26T06:49:32.280Z,19.70
2022-08-26T06:51:59.640Z,19.70
2022-08-26T06:54:31.908Z,19.70
2022-08-26T06:56:59.817Z,19.70
2022-08-26T06:59:27.263Z,19.70
2022-08-26T07:01:55.166Z,19.70
2022-08-26T07:04:28.084Z,19.80
2022-08-26T07:06:56.034Z,19.80
2022-08-26T07:09:26.166Z,19.80
2022-08-26T07:11:57.137Z,19.90
2022-08-26T07:14:26.303Z,19.90
2022-08-26T07:16:54.369Z,20.00
2022-08-26T07:19:30.657Z,20.10
2022-08-26T07:22:06.380Z,20.20
2022-08-26T07:24:39.286Z,20.30
2022-08-26T07:27:13.062Z,20.50
2022-08-26T07:29:42.644Z,20.60
2022-08-26T07:32:14.653Z,20.80
2022-08-26T07:34:42.607Z,20.90
2022-08-26T07:37:10.179Z,21.00
2022-08-26T07:39:37.916Z,21.30
2022-08-26T07:42:09.882Z,21.60
2022-08-26T07:44:38.027Z,21.90
2022-08-26T07:47:19.400Z,22.10
2022-08-26T07:49:55.057Z,22.10
2022-08-26T07:52:28.751Z,22.20
2022-08-26T07:54:58.434Z,22.30
2022-08-26T07:57:26.965Z,22.40
2022-08-26T07:59:55.532Z,22.40
2022-08-26T08:02:24.299Z,22.30
2022-08-26T08:04:53.490Z,22.30
2022-08-26T08:07:21.488Z,22.40
2022-08-26T08:10:09.933Z,22.50
2022-08-26T08:12:41.046Z,22.60
2022-08-26T08:15:09.615Z,22.70
2022-08-26T08:17:37.351Z,22.70
2022-08-26T08:20:05.736Z,22.60
2022-08-26T08:22:33.395Z,22.60
2022-08-26T08:25:00.705Z,22.60
2022-08-26T08:27:33.197Z,22.60
2022-08-26T08:30:05.859Z,22.70
2022-08-26T08:32:33.594Z,22.80
2022-08-26T08:35:01.999Z,22.90
2022-08-26T08:37:38.370Z,23.00
2022-08-26T08:40:08.222Z,23.10
2022-08-26T08:45:37.789Z,23.50
2022-08-26T08:48:29.484Z,23.70
2022-08-26T08:51:21.391Z,23.80
2022-08-26T08:53:57.090Z,23.90
2022-08-26T08:56:39.468Z,24.10
2022-08-26T08:59:24.733Z,24.20
2022-08-26T09:01:52.294Z,24.20
2022-08-26T09:04:55.335Z,24.30
2022-08-26T09:07:48.338Z,24.50
2022-08-26T09:10:18.811Z,24.50
2022-08-26T09:12:48.290Z,24.60
2022-08-26T09:15:41.603Z,24.50
2022-08-26T09:18:23.678Z,24.50
2022-08-26T09:21:03.558Z,24.60
2022-08-26T09:23:33.912Z,24.80
2022-08-26T09:26:18.483Z,24.90
2022-08-26T09:28:49.513Z,24.90
2022-08-26T09:31:25.500Z,24.90
2022-08-26T09:34:17.414Z,24.90
2022-08-26T09:36:51.912Z,25.00
2022-08-26T09:39:27.570Z,25.00
2022-08-26T09:42:17.310Z,24.90
2022-08-26T09:44:54.963Z,24.90
2022-08-26T09:47:37.464Z,24.90
2022-08-26T09:50:12.649Z,24.90
2022-08-26T09:52:46.494Z,24.80
2022-08-26T09:55:21.664Z,24.60
2022-08-26T09:58:03.596Z,24.40
2022-08-26T10:00:41.470Z,24.30
2022-08-26T10:03:15.546Z,24.20
2022-08-26T10:05:56.738Z,24.20
2022-08-26T10:08:34.142Z,24.20
2022-08-26T10:11:21.785Z,24.20
2022-08-26T10:14:03.579Z,24.20
2022-08-26T10:16:41.200Z,24.20
2022-08-26T10:19:22.773Z,24.20
2022-08-26T10:21:59.144Z,24.20
2022-08-26T10:24:40.475Z,24.20
2022-08-26T10:27:34.924Z,24.10
2022-08-26T10:30:12.838Z,24.10
2022-08-26T10:32:56.272Z,24.10
2022-08-26T10:35:27.896Z,24.10
2022-08-26T10:38:08.386Z,24.20
2022-08-26T10:40:55.601Z,24.40
2022-08-26T10:43:37.165Z,24.60
2022-08-26T10:49:00.362Z,25.00
2022-08-26T10:51:36.744Z,25.00
2022-08-26T10:54:21.718Z,25.10
2022-08-26T10:57:11.226Z,25.20
2022-08-26T10:59:59.543Z,25.20
2022-08-26T11:02:47.582Z,25.10
2022-08-26T11:05:22.582Z,25.00
2022-08-26T11:07:56.363Z,25.00
2022-08-26T11:10:24.378Z,24.90
2022-08-26T11:13:04.634Z,24.90
2022-08-26T11:15:38.982Z,24.90
2022-08-26T11:18:37.170Z,24.80
2022-08-26T11:21:47.794Z,24.80
2022-08-26T11:24:46.774Z,24.80
2022-08-26T11:27:35.938Z,24.70
2022-08-26T11:30:21.429Z,24.70
2022-08-26T11:32:54.118Z,24.90
2022-08-26T11:35:24.790Z,25.10
2022-08-26T11:38:18.561Z,25.30
2022-08-26T11:41:09.040Z,25.40
2022-08-26T11:43:39.656Z,25.30
2022-08-26T11:46:13.409Z,25.20
2022-08-26T11:48:43.567Z,25.10
2022-08-26T11:51:32.035Z,25.10
2022-08-26T11:54:10.547Z,25.20
2022-08-26T11:56:46.124Z,25.60
2022-08-26T11:59:38.931Z,25.70
2022-08-26T12:02:15.686Z,26.00
2022-08-26T12:04:52.013Z,26.20
2022-08-26T12:07:27.849Z,26.30
2022-08-26T12:10:02.318Z,26.30
2022-08-26T12:12:42.729Z,26.30
2022-08-26T12:15:13.070Z,26.30
2022-08-26T12:17:41.078Z,26.30
2022-08-26T12:20:19.572Z,26.40
2022-08-26T12:22:48.085Z,26.30
2022-08-26T12:25:24.156Z,26.30
2022-08-26T12:27:54.034Z,26.30
2022-08-26T12:30:26.198Z,26.40
2022-08-26T12:33:23.007Z,26.40
2022-08-26T12:35:56.769Z,26.50
2022-08-26T12:38:30.164Z,26.50
2022-08-26T12:40:57.932Z,26.40
2022-08-26T12:43:47.868Z,26.50
2022-08-26T12:46:24.820Z,26.50
2022-08-26T12:48:53.198Z,26.60
2022-08-26T12:51:29.305Z,26.60
2022-08-26T12:53:58.312Z,26.60
2022-08-26T12:56:43.361Z,26.50
2022-08-26T12:59:24.633Z,26.50
2022-08-26T13:01:52.661Z,26.40
2022-08-26T13:04:39.124Z,26.40
2022-08-26T13:07:16.461Z,26.40
2022-08-26T13:09:53.330Z,26.60
2022-08-26T13:12:37.684Z,26.80
2022-08-26T13:15:10.102Z,26.90
2022-08-26T13:17:40.466Z,26.70
2022-08-26T13:20:08.335Z,26.50
2022-08-26T13:22:42.511Z,26.30
2022-08-26T13:25:14.608Z,26.20
2022-08-26T13:27:46.996Z,26.10
2022-08-26T13:30:15.592Z,26.00
2022-08-26T13:32:44.140Z,26.10
2022-08-26T13:35:11.955Z,26.40
2022-08-26T13:37:42.223Z,26.50
2022-08-26T13:40:10.405Z,26.60
2022-08-26T13:42:37.858Z,25.90
2022-08-26T13:45:17.397Z,26.70
2022-08-26T13:47:44.916Z,26.80
2022-08-26T13:50:12.535Z,26.80
2022-08-26T13:52:43.745Z,26.80
2022-08-26T13:55:11.322Z,26.80
2022-08-26T13:57:38.811Z,26.70
2022-08-26T14:00:10.981Z,26.40
2022-08-26T14:02:42.369Z,26.30
2022-08-26T14:05:14.849Z,26.20
2022-08-26T14:07:45.336Z,26.20
2022-08-26T14:10:13.271Z,26.30
2022-08-26T14:12:40.840Z,26.40
2022-08-26T14:15:09.065Z,26.50
2022-08-26T14:17:36.480Z,26.60
2022-08-26T14:20:08.139Z,26.50
2022-08-26T14:22:40.542Z,26.50
2022-08-26T14:25:14.993Z,26.60
2022-08-26T14:27:46.477Z,26.50
2022-08-26T14:30:17.882Z,26.50
2022-08-26T14:32:51.524Z,26.60
2022-08-26T14:35:28.723Z,26.60
2022-08-26T14:37:57.006Z,26.70
2022-08-26T14:40:26.989Z,26.70
2022-08-26T14:42:55.185Z,26.70
2022-08-26T14:45:27.789Z,26.80
2022-08-26T14:47:57.241Z,26.90
2022-08-26T14:50:26.437Z,27.10
2022-08-26T15:33:22.695Z,27.00
2022-08-26T15:35:54.460Z,27.00
2022-08-26T15:38:25.428Z,27.00
2022-08-26T15:40:53.714Z,26.90
2022-08-26T15:43:29.033Z,26.80
2022-08-26T15:46:04.427Z,26.80
2022-08-26T15:48:32.117Z,26.70
2022-08-26T15:51:01.816Z,27.00
2022-08-26T15:53:32.270Z,27.00
2022-08-26T15:56:01.165Z,27.20
2022-08-26T15:58:30.000Z,27.30
2022-08-26T16:01:00.975Z,27.40
2022-08-26T16:03:28.638Z,27.40
2022-08-26T16:05:55.961Z,27.40
2022-08-26T16:08:23.292Z,27.40
2022-08-26T16:10:51.572Z,27.50
2022-08-26T16:13:20.458Z,27.70
2022-08-26T16:15:48.640Z,27.80
2022-08-26T16:18:16.913Z,27.90
2022-08-26T16:21:12.879Z,27.90
2022-08-26T16:23:38.658Z,27.80
2022-08-26T16:26:20.309Z,27.90
2022-08-26T16:28:47.954Z,28.00
2022-08-26T16:31:15.833Z,28.10
2022-08-26T16:33:43.131Z,28.10
2022-08-26T16:36:11.202Z,28.30
2022-08-26T16:38:39.415Z,28.30
2022-08-26T16:41:07.448Z,28.40
2022-08-26T16:43:35.160Z,28.40
2022-08-26T16:46:02.502Z,28.40
2022-08-26T16:48:29.845Z,28.40
2022-08-26T16:50:57.107Z,28.50
2022-08-26T16:53:24.487Z,28.50
2022-08-26T16:55:51.980Z,28.50
2022-08-26T16:58:22.135Z,28.50
2022-08-26T17:00:49.988Z,28.50
2022-08-26T17:03:17.560Z,28.40
2022-08-26T17:05:45.556Z,28.40
2022-08-26T17:08:16.356Z,28.40
2022-08-26T17:10:55.523Z,28.40
2022-08-26T17:13:34.790Z,28.40
2022-08-26T17:16:04.401Z,28.40
2022-08-26T17:18:33.076Z,28.50
2022-08-26T17:23:36.451Z,28.30
2022-08-26T17:26:04.628Z,28.00
2022-08-26T17:28:36.178Z,27.70
2022-08-26T17:31:09.318Z,27.40
2022-08-26T17:33:37.330Z,27.10
2022-08-26T17:36:09.756Z,26.90
2022-08-26T17:38:38.469Z,26.60
2022-08-26T17:41:12.960Z,26.40
2022-08-26T17:43:41.096Z,26.10
2022-08-26T17:46:10.502Z,25.90
2022-08-26T17:48:39.625Z,25.60
2022-08-26T17:51:09.329Z,25.40
2022-08-26T17:53:37.444Z,25.10
2022-08-26T17:56:10.348Z,24.90
2022-08-26T17:58:48.196Z,24.70
2022-08-26T18:01:20.086Z,24.50
2022-08-26T18:03:47.574Z,24.30
2022-08-26T18:06:16.233Z,24.20
2022-08-26T18:08:45.208Z,24.00
2022-08-26T18:11:15.509Z,23.90
2022-08-26T18:13:47.053Z,23.80
2022-08-26T18:16:16.590Z,23.60
2022-08-26T18:18:44.823Z,23.50
2022-08-26T18:21:27.212Z,23.30
2022-08-26T18:23:54.966Z,23.20
2022-08-26T18:26:29.599Z,23.10
2022-08-26T18:29:02.063Z,23.00
2022-08-26T18:31:30.225Z,22.90
2022-08-26T18:34:04.994Z,22.70
2022-08-26T18:36:35.295Z,22.60
2022-08-26T18:39:05.111Z,22.50
2022-08-26T18:41:37.750Z,22.30
2022-08-26T18:44:08.490Z,22.20
2022-08-26T18:46:40.526Z,22.10
2022-08-26T18:49:14.547Z,22.00
2022-08-26T18:51:43.096Z,21.90
2022-08-26T18:54:11.909Z,21.80
2022-08-26T18:56:42.536Z,21.70
2022-08-26T18:59:14.589Z,21.60
2022-08-26T19:01:42.810Z,21.50
2022-08-26T19:04:14.736Z,21.40
2022-08-26T19:06:44.250Z,21.30
2022-08-26T19:09:14.714Z,21.20
2022-08-26T19:11:46.400Z,21.20
2022-08-26T19:14:15.740Z,21.10
2022-08-26T19:16:45.008Z,21.00
2022-08-26T19:19:12.285Z,20.90
2022-08-26T19:21:40.195Z,20.90
2022-08-26T19:24:15.612Z,20.80
2022-08-26T19:26:44.533Z,20.80
2022-08-26T19:29:12.648Z,20.70
2022-08-26T19:31:39.955Z,20.70
2022-08-26T19:34:09.812Z,20.60
2022-08-26T19:36:37.927Z,20.50
2022-08-26T19:39:08.907Z,20.40
2022-08-26T19:41:38.542Z,20.40
2022-08-26T19:44:13.257Z,20.30
2022-08-26T19:46:40.739Z,20.30
2022-08-26T19:49:07.959Z,20.30
2022-08-26T19:51:36.675Z,20.20
2022-08-26T19:54:04.468Z,20.20
2022-08-26T19:56:32.150Z,20.10
2022-08-26T19:58:59.510Z,20.10
2022-08-26T20:01:26.693Z,20.00
2022-08-26T20:06:21.074Z,19.90
2022-08-26T20:08:50.736Z,19.80
2022-08-26T20:11:19.437Z,19.70
2022-08-26T20:13:48.732Z,19.70
2022-08-26T20:16:17.081Z,19.60
2022-08-26T20:19:04.214Z,19.50
2022-08-26T20:21:35.805Z,19.50
2022-08-26T20:24:08.709Z,19.40
2022-08-26T20:26:38.648Z,19.30
2022-08-26T20:29:07.287Z,19.30
2022-08-26T20:31:35.538Z,19.20
2022-08-26T20:34:03.076Z,19.10
2022-08-26T20:36:30.421Z,19.10
2022-08-26T20:38:58.667Z,19.00
2022-08-26T20:41:26.722Z,19.00
2022-08-26T20:43:54.960Z,18.90
2022-08-26T20:46:24.858Z,18.90
2022-08-26T20:48:53.722Z,18.80
2022-08-26T20:51:23.163Z,18.80
2022-08-26T20:53:51.245Z,18.70
2022-08-26T20:56:23.852Z,18.70
2022-08-26T20:58:56.385Z,18.60
2022-08-26T21:01:27.107Z,18.60
2022-08-26T21:03:56.013Z,18.50
2022-08-26T21:06:23.868Z,18.50
2022-08-26T21:08:51.246Z,18.50
2022-08-26T21:11:18.563Z,18.50
2022-08-26T21:14:04.375Z,18.40
2022-08-26T21:16:32.425Z,18.30
2022-08-26T21:19:00.562Z,18.30
2022-08-26T21:21:28.592Z,18.30
2022-08-26T21:23:56.529Z,18.30
2022-08-26T21:26:24.437Z,18.20
2022-08-26T21:28:52.028Z,18.20
2022-08-26T21:31:22.685Z,18.10
2022-08-26T21:33:51.216Z,18.10
2022-08-26T21:36:19.595Z,18.10
2022-08-26T21:38:47.172Z,18.00
2022-08-26T21:41:19.535Z,18.00
2022-08-26T21:43:48.731Z,18.00
2022-08-26T21:46:19.541Z,17.90
2022-08-26T21:48:53.371Z,17.90
2022-08-26T21:51:23.182Z,17.90
2022-08-26T21:53:53.079Z,17.80
2022-08-26T21:56:21.462Z,17.80
2022-08-26T21:58:48.855Z,17.70
2022-08-26T22:01:22.639Z,17.70
2022-08-26T22:03:52.612Z,17.70
2022-08-26T22:06:22.952Z,17.70
2022-08-26T22:08:50.944Z,17.60
2022-08-26T22:11:18.960Z,17.60
2022-08-26T22:13:47.142Z,17.60
2022-08-26T22:16:15.073Z,17.60
2022-08-26T22:18:46.057Z,17.50
2022-08-26T22:21:17.277Z,17.50
2022-08-26T22:23:44.863Z,17.50
2022-08-26T22:26:14.540Z,17.50
2022-08-26T22:28:45.354Z,17.50
2022-08-26T22:31:19.081Z,17.50
2022-08-26T22:33:57.621Z,17.50
2022-08-26T22:36:27.425Z,17.40
2022-08-26T22:38:56.196Z,17.40
2022-08-26T22:41:26.142Z,17.40
2022-08-26T22:43:53.499Z,17.40
2022-08-26T22:46:25.211Z,17.40
2022-08-26T22:48:54.211Z,17.30
2022-08-26T22:51:23.282Z,17.30
2022-08-26T22:53:50.507Z,17.30
2022-08-26T22:56:19.294Z,17.30
2022-08-26T22:58:50.748Z,17.30
2022-08-26T23:01:17.898Z,17.30
2022-08-26T23:03:46.352Z,17.30
2022-08-26T23:06:13.943Z,17.30
2022-08-26T23:08:42.197Z,17.40
2022-08-26T23:11:11.183Z,17.40
2022-08-26T23:13:38.993Z,17.50
2022-08-26T23:16:10.284Z,17.50
2022-08-26T23:18:38.767Z,17.50
2022-08-26T23:21:06.766Z,16.20
2022-08-26T23:23:37.522Z,17.60
2022-08-26T23:26:06.446Z,17.60
2022-08-26T23:28:35.110Z,17.50
2022-08-26T23:31:02.395Z,17.50
2022-08-26T23:33:49.836Z,17.50
2022-08-26T23:36:18.527Z,17.50
2022-08-26T23:38:52.690Z,17.50
2022-08-26T23:41:22.570Z,17.50
2022-08-26T23:43:53.406Z,17.50
2022-08-26T23:46:21.019Z,17.50
2022-08-26T23:48:48.237Z,17.50
2022-08-26T23:51:34.345Z,17.60
2022-08-26T23:54:01.619Z,17.50
2022-08-26T23:56:29.372Z,17.50
2022-08-26T23:58:56.675Z,17.50
